Historyczne dane pomiarowe

Dodano dane terminowe – wersja testowa.

Dane z okresu 1951-2019

Wersja bazy: 1.34 [2019-03-16, lista zmian], aktualizacja planowana na 2019-04-15

Dane meteo z obszaru Polski uzyskane na podstawie danych udostępnionych przez Instytut Meteorologii i Gospodarki Wodnej – Państwowy Instytut Badawczy.

 

Wybierz Datę:    

       

TemperaturaWilgotnośćWiatrCiśnienieOpadyŚniegCzas trwania zjawisk
 Stacja t tx tn tng RH VA  wxwx mslp ppp RRR   cm mm wxwxwxwxwxwxwx
1987-08-14 15.3 20.6 9.7 7.5 75.8- 3.3 2.3---- 0.0------------
1987-08-13 12.1 17.0 8.0 7.1 85.8- 5.3 4.3---- 0.0------------
1987-08-12 12.2 17.3 8.7 8.2 78.5- 4.7 6.3---- 0.0------------
1987-08-11 12.7 17.1 10.8 11.1 85.8- 6.0 6.7---- 2.0------------
1987-08-10 15.5 18.6 13.5 12.5 79.8- 8.0 5.0---- 0.4------------
1987-08-09 16.7 23.0 10.6 8.9 63.3- 3.0 2.7---- 0.5------------
1987-08-08 13.2 18.0 10.9 10.9 80.8- 4.7 2.0---- 0.0------------
1987-08-07 12.7 19.0 8.4 7.4 71.5- 4.3 5.0---- 0.7------------
1987-08-06 11.8 16.5 9.7 8.7 83.3- 7.7 3.0---- 7.0------------
1987-08-05 12.4 18.0 9.1 7.5 75.5- 5.3 2.3---- 0.0------------
1987-08-04 15.0 20.2 10.6 8.8 77.8- 5.7 4.7---- 1.4------------
1987-08-03 14.0 18.5 11.1 9.7 77.5- 5.0 5.7---- 0.0------------
1987-08-02 15.4 19.0 13.2 13.9 73.5- 3.7 5.3---- 2.3------------
1987-08-01 16.1 21.4 10.9 10.0 73.3- 3.7 3.7---- 7.7------------
1987-07-31 17.2 21.7 14.3 13.1 76.0- 5.7 5.3---- 18.4------------
1987-07-30 16.2 22.8 11.0 9.4 69.5- 5.0 3.7---- 0.0------------
1987-07-29 12.9 17.0 8.7 7.9 84.5- 6.3 1.7---- 2.2------------
1987-07-28 13.8 19.2 11.0 8.5 81.3- 7.0 5.7---- 3.3------------
1987-07-27 12.4 16.5 9.1 9.1 73.8- 3.0 3.7---- 0.7------------
1987-07-26 15.1 20.0 11.2 12.8 88.3- 8.0 2.7---- 12.6------------
1987-07-25 20.7 24.5 17.5 16.7 75.3- 4.0 1.3---- 0.0------------
1987-07-24 21.2 24.5 17.1 15.2 78.5- 4.7 2.0---- 1.8------------
1987-07-23 21.1 26.8 16.3 15.9 74.5- 0.7 1.3---- 4.7------------
1987-07-22 20.6 27.4 16.4 15.0 86.0- 5.0 1.7---- 21.0------------
1987-07-21 19.6 25.8 13.1 11.5 76.8- 2.3 1.0---- 0.0------------
1987-07-20 21.8 29.1 17.8 17.2 80.3- 5.0 3.3---- 0.0------------
1987-07-19 19.5 23.5 13.9 13.9 85.0- 6.3 3.3---- 0.5------------
1987-07-18 20.0 23.7 16.2 16.4 90.0- 5.7 5.0---- 0.0------------
1987-07-17 19.3 25.5 13.3 12.4 78.3- 6.7 3.0---- 19.3------------
1987-07-16 19.3 26.1 10.2 9.1 60.5- 1.3 1.0---- 0.0------------
1987-07-15 17.1 23.0 9.8 6.0 67.5- 2.0 0.3---- 0.0------------
1987-07-14 15.0 18.5 10.8 8.5 73.3- 2.3 4.7---- 0.0------------
1987-07-13 17.7 24.2 12.6 11.4 71.0- 4.3 3.7---- 0.0------------
1987-07-12 22.0 28.6 14.6 13.5 60.3- 4.3 5.7---- 2.5------------
1987-07-11 16.2 22.8 9.2 7.8 62.5- 1.7 6.0---- 0.0------------
1987-07-10 14.6 19.0 11.3 10.9 69.5- 1.7 6.7---- 0.0------------
1987-07-09 19.9 24.4 15.8 16.5 71.0- 5.3 6.0---- 5.0------------
1987-07-08 21.6 28.1 13.5 9.7 52.0- 0.3 5.7---- 0.0------------
1987-07-07 19.4 25.3 10.4 8.7 57.0- 0.0 1.0---- 0.0------------
1987-07-06 16.5 22.0 8.8 4.0 62.3- 1.0 0.0---- 0.0------------
1987-07-05 16.3 20.9 10.1 10.6 71.5- 3.3 4.7---- 1.8------------
1987-07-04 17.3 21.7 10.2 7.8 65.0- 3.7 3.0---- 0.0------------
1987-07-03 19.0 22.9 15.9 16.7 62.5- 3.0 3.7---- 0.0------------
1987-07-02 21.2 25.0 18.8 17.9 77.0- 5.3 3.7---- 0.0------------
1987-07-01 24.8 30.7 19.7 18.6 70.0- 0.7 3.0---- 0.0------------
1987-06-30 23.0 27.6 17.3 16.4 79.0- 3.7 2.7---- 0.0------------
1987-06-29 17.7 23.9 11.3 8.9 69.5- 1.0 2.3---- 1.4------------
1987-06-28 18.1 24.2 13.5 11.2 76.0- 7.3 5.0---- 0.0------------
1987-06-27 19.0 23.2 14.1 13.5 71.5- 4.0 2.7---- 0.0------------
1987-06-26 15.6 22.4 8.0 6.2 66.0- 1.0 2.7---- 0.0------------
1987-06-25 13.9 18.8 11.2 9.1 80.8- 5.7 6.7---- 2.6------------
1987-06-24 16.5 20.8 12.5 10.0 76.5- 3.7 3.3---- 4.0------------
1987-06-23 16.8 23.0 12.5 10.6 81.0- 2.3 2.7---- 1.6------------
1987-06-22 18.1 25.0 11.2 8.5 74.5- 3.7 0.3---- 0.0------------
1987-06-21 17.1 23.6 9.7 6.9 74.3- 3.0 2.0---- 1.1------------
1987-06-20 15.2 21.2 8.6 5.0 72.0- 3.3 1.7---- 0.0------------
1987-06-19 12.4 17.2 7.0 5.6 75.5- 2.3 1.3---- 0.0------------
1987-06-18 12.4 17.9 6.7 3.6 70.3- 3.0 1.7---- 0.0------------
1987-06-17 11.8 15.3 8.6 7.6 79.5- 7.0 2.3---- 0.0------------
1987-06-16 16.9 25.0 12.1 12.6 79.5- 5.3 8.7---- 0.0------------
466.9 ms

 

Źródłem pochodzenia danych jest Instytut Meteorologii i Gospodarki Wodnej – Państwowy Instytut Badawczy. Dane Instytutu Meteorologii i Gospodarki Wodnej – Państwowego Instytutu Badawczego zostały przetworzone.

Dane źródłowe można odnaleźć na stronie https://dane.imgw.pl